createdAt,value
2019-05-12T00:01:19.626Z,8.30
2019-05-12T00:03:48.517Z,8.30
2019-05-12T00:06:17.655Z,8.30
2019-05-12T00:08:45.731Z,8.30
2019-05-12T00:11:13.604Z,8.30
2019-05-12T00:13:41.436Z,8.20
2019-05-12T00:16:09.218Z,8.20
2019-05-12T00:18:37.740Z,8.10
2019-05-12T00:21:05.784Z,8.10
2019-05-12T00:23:38.151Z,8.00
2019-05-12T00:26:07.840Z,8.00
2019-05-12T00:28:37.558Z,8.00
2019-05-12T00:31:04.737Z,8.00
2019-05-12T00:33:32.588Z,7.90
2019-05-12T00:36:00.369Z,7.90
2019-05-12T00:38:28.181Z,7.90
2019-05-12T00:40:58.247Z,7.90
2019-05-12T00:43:27.925Z,7.80
2019-05-12T00:45:55.317Z,7.90
2019-05-12T00:48:23.231Z,7.90
2019-05-12T00:50:51.008Z,7.80
2019-05-12T00:53:19.071Z,7.80
2019-05-12T00:55:47.627Z,7.80
2019-05-12T00:58:15.651Z,7.80
2019-05-12T01:00:43.437Z,7.80
2019-05-12T01:03:11.272Z,7.70
2019-05-12T01:05:39.060Z,7.70
2019-05-12T01:08:09.138Z,7.70
2019-05-12T01:10:38.582Z,7.70
2019-05-12T01:13:08.271Z,7.70
2019-05-12T01:15:37.571Z,7.60
2019-05-12T01:18:04.920Z,7.60
2019-05-12T01:20:32.720Z,7.60
2019-05-12T01:23:00.500Z,7.50
2019-05-12T01:25:29.091Z,7.50
2019-05-12T01:27:58.859Z,7.50
2019-05-12T01:30:28.465Z,7.50
2019-05-12T01:32:58.218Z,7.40
2019-05-12T01:35:27.805Z,7.40
2019-05-12T01:37:55.080Z,7.30
2019-05-12T01:40:22.868Z,7.30
2019-05-12T01:42:50.652Z,7.30
2019-05-12T01:45:18.444Z,7.30
2019-05-12T01:47:48.508Z,7.30
2019-05-12T01:50:17.826Z,7.30
2019-05-12T01:52:47.728Z,7.30
2019-05-12T01:55:15.036Z,7.20
2019-05-12T01:57:42.806Z,7.20
2019-05-12T02:00:11.501Z,7.20
2019-05-12T02:02:39.349Z,7.20
2019-05-12T02:05:08.835Z,7.20
2019-05-12T02:07:48.540Z,7.10
2019-05-12T02:10:18.066Z,7.10
2019-05-12T02:12:48.765Z,7.10
2019-05-12T02:15:18.230Z,7.10
2019-05-12T02:17:47.968Z,7.10
2019-05-12T02:20:17.917Z,7.00
2019-05-12T02:22:47.570Z,7.00
2019-05-12T02:25:14.779Z,7.00
2019-05-12T02:27:42.558Z,7.00
2019-05-12T02:30:10.625Z,6.90
2019-05-12T02:32:48.551Z,6.90
2019-05-12T02:35:07.999Z,6.90
2019-05-12T02:37:36.086Z,6.90
2019-05-12T02:40:05.090Z,6.80
2019-05-12T02:42:34.881Z,6.80
2019-05-12T02:45:05.219Z,6.80
2019-05-12T02:47:34.659Z,6.70
2019-05-12T02:50:05.061Z,6.70
2019-05-12T02:52:31.037Z,6.60
2019-05-12T02:55:00.826Z,6.60
2019-05-12T02:57:30.105Z,6.40
2019-05-12T02:59:58.675Z,6.30
2019-05-12T03:02:28.349Z,6.30
2019-05-12T03:04:57.665Z,6.20
2019-05-12T03:07:27.360Z,6.20
2019-05-12T03:09:55.327Z,6.20
2019-05-12T03:12:25.560Z,6.20
2019-05-12T03:14:54.403Z,6.20
2019-05-12T03:17:25.255Z,6.20
2019-05-12T03:19:51.882Z,6.20
2019-05-12T03:22:20.451Z,6.20
2019-05-12T03:25:06.465Z,6.20
2019-05-12T03:27:18.001Z,6.10
2019-05-12T03:29:45.863Z,6.10
2019-05-12T03:32:17.693Z,6.00
2019-05-12T03:34:47.335Z,6.00
2019-05-12T03:37:17.581Z,5.90
2019-05-12T03:39:44.759Z,5.90
2019-05-12T03:42:14.382Z,5.90
2019-05-12T03:44:44.348Z,5.90
2019-05-12T03:47:14.214Z,5.90
2019-05-12T03:49:40.592Z,5.80
2019-05-12T03:52:08.391Z,5.90
2019-05-12T03:54:36.166Z,5.80
2019-05-12T03:57:04.594Z,5.80
2019-05-12T03:59:34.765Z,5.80
2019-05-12T04:02:04.732Z,5.80
2019-05-12T04:04:34.102Z,5.80
2019-05-12T04:07:01.117Z,5.70
2019-05-12T04:09:28.890Z,5.70
2019-05-12T04:11:56.665Z,5.70
2019-05-12T04:14:25.411Z,5.70
2019-05-12T04:16:55.033Z,5.60
2019-05-12T04:19:24.882Z,5.60
2019-05-12T04:21:54.685Z,5.60
2019-05-12T04:24:24.933Z,5.70
2019-05-12T04:26:54.948Z,5.70
2019-05-12T04:29:24.810Z,5.70
2019-05-12T04:31:51.220Z,5.70
2019-05-12T04:34:19.494Z,5.70
2019-05-12T04:36:47.668Z,5.70
2019-05-12T04:39:15.450Z,5.70
2019-05-12T04:41:44.710Z,5.70
2019-05-12T04:44:15.143Z,5.70
2019-05-12T04:46:44.978Z,5.60
2019-05-12T04:49:11.735Z,5.60
2019-05-12T04:51:39.503Z,5.70
2019-05-12T04:54:07.294Z,5.70
2019-05-12T04:56:36.057Z,5.70
2019-05-12T04:59:04.958Z,5.70
2019-05-12T05:01:34.622Z,5.80
2019-05-12T05:04:05.328Z,5.80
2019-05-12T05:06:34.157Z,6.10
2019-05-12T05:09:04.842Z,6.20
2019-05-12T05:11:34.341Z,6.10
2019-05-12T05:14:03.986Z,6.00
2019-05-12T05:16:30.950Z,6.00
2019-05-12T05:18:58.733Z,6.10
2019-05-12T05:21:26.888Z,6.10
2019-05-12T05:23:54.666Z,6.10
2019-05-12T05:26:27.841Z,6.80
2019-05-12T05:28:54.105Z,6.70
2019-05-12T05:31:21.483Z,6.80
2019-05-12T05:33:50.269Z,7.00
2019-05-12T05:36:19.887Z,7.60
2019-05-12T05:38:51.033Z,7.40
2019-05-12T05:41:17.160Z,7.30
2019-05-12T05:43:48.612Z,7.20
2019-05-12T05:46:14.475Z,7.10
2019-05-12T05:48:43.999Z,7.10
2019-05-12T05:51:13.623Z,7.00
2019-05-12T05:53:41.448Z,7.10
2019-05-12T05:56:09.729Z,7.00
2019-05-12T05:58:40.239Z,7.00
2019-05-12T06:01:08.283Z,7.20
2019-05-12T06:03:36.265Z,7.30
2019-05-12T06:06:10.779Z,7.30
2019-05-12T06:08:33.840Z,7.40
2019-05-12T06:11:01.840Z,7.50
2019-05-12T06:13:31.829Z,7.50
2019-05-12T06:15:59.213Z,7.60
2019-05-12T06:18:28.963Z,7.60
2019-05-12T06:20:56.745Z,7.70
2019-05-12T06:23:28.936Z,7.70
2019-05-12T06:25:54.968Z,7.80
2019-05-12T06:28:23.510Z,7.90
2019-05-12T06:30:51.492Z,7.90
2019-05-12T06:33:22.695Z,8.00
2019-05-12T06:35:48.824Z,8.00
2019-05-12T06:38:16.613Z,8.10
2019-05-12T06:40:45.277Z,8.10
2019-05-12T06:43:14.038Z,8.20
2019-05-12T06:45:44.957Z,8.20
2019-05-12T06:48:13.354Z,8.30
2019-05-12T06:50:40.995Z,8.40
2019-05-12T06:53:08.761Z,8.50
2019-05-12T06:55:39.061Z,8.60
2019-05-12T06:58:06.040Z,8.60
2019-05-12T07:00:35.121Z,8.60
2019-05-12T07:03:04.043Z,8.70
2019-05-12T07:05:33.722Z,8.80
2019-05-12T07:08:04.027Z,8.90
2019-05-12T07:10:42.158Z,8.90
2019-05-12T07:13:02.571Z,9.00
2019-05-12T07:15:35.776Z,9.00
2019-05-12T07:18:04.330Z,9.10
2019-05-12T07:20:35.681Z,9.20
2019-05-12T07:23:04.006Z,9.40
2019-05-12T07:25:34.234Z,9.40
2019-05-12T07:28:04.882Z,9.40
2019-05-12T07:30:34.752Z,9.60
2019-05-12T07:33:03.797Z,9.70
2019-05-12T07:35:33.691Z,9.80
2019-05-12T07:38:04.293Z,9.90
2019-05-12T07:40:34.738Z,10.20
2019-05-12T07:43:03.776Z,10.40
2019-05-12T07:45:30.708Z,10.50
2019-05-12T07:47:59.363Z,10.50
2019-05-12T07:50:28.088Z,10.60
2019-05-12T07:52:55.877Z,10.70
2019-05-12T07:55:23.785Z,10.70
2019-05-12T07:57:57.887Z,10.80
2019-05-12T08:00:22.827Z,10.80
2019-05-12T08:02:50.692Z,10.90
2019-05-12T08:05:19.781Z,11.10
2019-05-12T08:07:50.392Z,11.10
2019-05-12T08:10:20.103Z,11.20
2019-05-12T08:12:51.195Z,11.10
2019-05-12T08:15:16.605Z,11.10
2019-05-12T08:17:49.300Z,11.10
2019-05-12T08:20:13.939Z,11.20
2019-05-12T08:22:43.758Z,11.00
2019-05-12T08:25:13.211Z,10.90
2019-05-12T08:27:45.159Z,10.80
2019-05-12T08:30:10.516Z,10.90
2019-05-12T08:32:38.396Z,11.00
2019-05-12T08:35:06.260Z,11.00
2019-05-12T08:37:34.112Z,11.10
2019-05-12T08:40:04.100Z,11.10
2019-05-12T08:42:31.396Z,11.30
2019-05-12T08:44:59.172Z,11.40
2019-05-12T08:47:28.993Z,11.40
2019-05-12T08:49:58.692Z,11.40
2019-05-12T08:52:30.707Z,11.40
2019-05-12T08:54:55.524Z,11.50
2019-05-12T08:57:24.166Z,11.60
2019-05-12T08:59:54.643Z,11.50
2019-05-12T09:02:23.923Z,11.40
2019-05-12T09:04:53.263Z,11.50
2019-05-12T09:07:21.036Z,11.70
2019-05-12T09:09:48.813Z,11.80
2019-05-12T09:12:16.600Z,12.10
2019-05-12T09:14:46.268Z,12.30
2019-05-12T09:17:14.115Z,12.40
2019-05-12T09:19:43.636Z,12.20
2019-05-12T09:22:17.005Z,12.30
2019-05-12T09:24:41.101Z,12.30
2019-05-12T09:27:09.114Z,12.20
2019-05-12T09:29:37.208Z,12.20
2019-05-12T09:32:09.381Z,12.20
2019-05-12T09:34:34.516Z,12.30
2019-05-12T09:37:04.026Z,12.40
2019-05-12T09:39:34.095Z,12.30
2019-05-12T09:42:03.599Z,12.40
2019-05-12T09:44:30.924Z,12.50
2019-05-12T09:46:58.946Z,12.60
2019-05-12T09:49:31.360Z,12.70
2019-05-12T09:51:56.328Z,12.70
2019-05-12T09:54:27.860Z,12.80
2019-05-12T09:56:55.392Z,12.90
2019-05-12T09:59:25.793Z,12.80
2019-05-12T10:01:54.155Z,12.80
2019-05-12T10:04:22.419Z,12.90
2019-05-12T10:06:50.222Z,12.90
2019-05-12T10:09:19.761Z,12.90
2019-05-12T10:11:53.942Z,13.20
2019-05-12T10:14:17.368Z,13.30
2019-05-12T10:16:49.574Z,13.30
2019-05-12T10:19:14.677Z,13.40
2019-05-12T10:21:44.035Z,13.40
2019-05-12T10:24:12.048Z,13.30
2019-05-12T10:26:41.187Z,13.30
2019-05-12T10:29:19.581Z,13.40
2019-05-12T10:31:39.467Z,13.40
2019-05-12T10:34:19.430Z,13.40
2019-05-12T10:36:49.162Z,13.50
2019-05-12T10:39:17.460Z,13.50
2019-05-12T10:41:45.509Z,13.60
2019-05-12T10:44:13.916Z,13.50
2019-05-12T10:46:42.530Z,13.60
2019-05-12T10:49:10.636Z,13.60
2019-05-12T10:51:38.421Z,13.60
2019-05-12T10:54:12.588Z,13.50
2019-05-12T10:56:36.061Z,13.50
2019-05-12T10:59:04.371Z,13.50
2019-05-12T11:01:32.264Z,13.60
2019-05-12T11:04:00.108Z,13.90
2019-05-12T11:06:27.894Z,14.10
2019-05-12T11:08:56.036Z,14.10
2019-05-12T11:11:24.149Z,13.90
2019-05-12T11:13:53.740Z,13.90
2019-05-12T11:16:22.883Z,14.00
2019-05-12T11:18:51.267Z,13.90
2019-05-12T11:21:19.048Z,14.00
2019-05-12T11:23:46.846Z,14.20
2019-05-12T11:26:14.871Z,14.40
2019-05-12T11:28:42.661Z,14.60
2019-05-12T11:31:10.460Z,14.70
2019-05-12T11:33:38.234Z,14.50
2019-05-12T11:36:06.029Z,14.20
2019-05-12T11:38:33.808Z,14.30
2019-05-12T11:41:01.604Z,14.50
2019-05-12T11:43:29.956Z,14.50
2019-05-12T11:45:57.848Z,14.60
2019-05-12T11:48:25.672Z,14.90
2019-05-12T11:50:54.489Z,15.30
2019-05-12T11:53:30.303Z,15.50
2019-05-12T11:55:54.109Z,15.80
2019-05-12T11:58:23.406Z,15.90
2019-05-12T12:00:53.351Z,16.30
2019-05-12T12:03:23.280Z,16.70
2019-05-12T12:05:50.888Z,17.00
2019-05-12T12:08:18.664Z,17.40
2019-05-12T12:10:49.172Z,17.90
2019-05-12T12:13:19.410Z,18.40
2019-05-12T12:15:45.521Z,18.80
2019-05-12T12:18:15.314Z,18.50
2019-05-12T12:20:44.240Z,17.00
2019-05-12T12:23:14.083Z,16.80
2019-05-12T12:25:42.953Z,17.50
2019-05-12T12:28:13.468Z,18.50
2019-05-12T12:30:41.243Z,18.10
2019-05-12T12:33:09.045Z,18.90
2019-05-12T12:35:36.852Z,19.90
2019-05-12T12:38:04.632Z,20.80
2019-05-12T12:40:32.515Z,21.50
2019-05-12T12:43:00.356Z,22.00
2019-05-12T12:45:47.424Z,21.50
2019-05-12T12:48:19.302Z,19.40
2019-05-12T12:50:44.732Z,18.30
2019-05-12T12:53:12.541Z,17.80
2019-05-12T12:55:43.737Z,17.40
2019-05-12T12:58:09.885Z,17.20
2019-05-12T13:00:46.603Z,18.40
2019-05-12T13:03:07.172Z,19.90
2019-05-12T13:05:35.681Z,20.00
2019-05-12T13:08:04.241Z,19.30
2019-05-12T13:10:33.716Z,19.00
2019-05-12T13:13:04.184Z,19.80
2019-05-12T13:15:31.253Z,21.10
2019-05-12T13:17:59.108Z,22.30
2019-05-12T13:20:26.892Z,23.40
2019-05-12T13:22:54.956Z,23.60
2019-05-12T13:25:22.741Z,23.50
2019-05-12T13:27:50.609Z,23.70
2019-05-12T13:30:21.253Z,23.40
2019-05-12T13:32:48.105Z,23.80
2019-05-12T13:35:19.859Z,23.70
2019-05-12T13:37:50.340Z,23.70
2019-05-12T13:40:15.116Z,23.90
2019-05-12T13:42:43.773Z,23.70
2019-05-12T13:45:15.932Z,24.10
2019-05-12T13:47:41.299Z,25.40
2019-05-12T13:50:13.319Z,25.50
2019-05-12T13:52:38.772Z,23.70
2019-05-12T13:55:07.806Z,22.30
2019-05-12T13:57:35.828Z,21.60
2019-05-12T14:00:10.418Z,19.40
2019-05-12T14:02:33.797Z,18.50
2019-05-12T14:05:07.226Z,18.00
2019-05-12T14:07:31.237Z,18.30
2019-05-12T14:09:59.048Z,19.10
2019-05-12T14:12:26.945Z,20.30
2019-05-12T14:14:54.721Z,21.10
2019-05-12T14:17:23.483Z,21.40
2019-05-12T14:19:53.283Z,20.80
2019-05-12T14:22:24.632Z,20.70
2019-05-12T14:24:50.476Z,19.90
2019-05-12T14:27:19.003Z,19.70
2019-05-12T14:29:47.804Z,19.60
2019-05-12T14:32:17.496Z,19.10
2019-05-12T14:34:45.112Z,18.40
2019-05-12T14:37:14.026Z,17.70
2019-05-12T14:39:46.138Z,17.50
2019-05-12T14:42:13.585Z,18.30
2019-05-12T14:44:44.998Z,18.50
2019-05-12T14:47:11.100Z,18.70
2019-05-12T14:49:38.939Z,19.20
2019-05-12T14:52:06.711Z,20.10
2019-05-12T14:54:34.503Z,21.00
2019-05-12T14:57:03.521Z,20.90
2019-05-12T14:59:39.225Z,20.10
2019-05-12T15:02:03.977Z,19.80
2019-05-12T15:04:30.490Z,19.90
2019-05-12T15:06:59.876Z,20.30
2019-05-12T15:09:27.772Z,20.50
2019-05-12T15:11:55.573Z,20.70
2019-05-12T15:14:24.608Z,21.10
2019-05-12T15:16:54.213Z,21.40
2019-05-12T15:19:25.892Z,20.70
2019-05-12T15:21:53.635Z,20.70
2019-05-12T15:24:21.205Z,20.60
2019-05-12T15:26:50.584Z,20.20
2019-05-12T15:29:20.076Z,20.80
2019-05-12T15:31:54.125Z,20.90
2019-05-12T15:34:17.613Z,20.80
2019-05-12T15:36:51.803Z,20.70
2019-05-12T15:39:14.956Z,19.40
2019-05-12T15:41:42.726Z,19.10
2019-05-12T15:44:10.753Z,19.00
2019-05-12T15:46:40.952Z,19.20
2019-05-12T15:49:08.902Z,19.20
2019-05-12T15:51:39.086Z,18.60
2019-05-12T15:54:11.513Z,18.20
2019-05-12T15:56:36.167Z,18.30
2019-05-12T15:59:04.021Z,18.50
2019-05-12T16:01:33.463Z,18.70
2019-05-12T16:04:03.501Z,18.70
2019-05-12T16:06:30.992Z,18.20
2019-05-12T16:08:58.787Z,17.90
2019-05-12T16:11:26.565Z,17.70
2019-05-12T16:13:59.260Z,17.70
2019-05-12T16:16:24.700Z,17.50
2019-05-12T16:18:53.954Z,17.70
2019-05-12T16:21:21.879Z,17.70
2019-05-12T16:23:49.708Z,17.60
2019-05-12T16:26:17.534Z,17.30
2019-05-12T16:28:45.322Z,17.20
2019-05-12T16:31:14.438Z,16.90
2019-05-12T16:33:43.625Z,17.00
2019-05-12T16:36:14.456Z,17.40
2019-05-12T16:38:41.250Z,17.70
2019-05-12T16:41:09.094Z,17.60
2019-05-12T16:43:36.869Z,17.60
2019-05-12T16:46:04.743Z,17.60
2019-05-12T16:48:35.566Z,17.40
2019-05-12T16:51:03.306Z,17.30
2019-05-12T16:53:31.308Z,17.50
2019-05-12T16:55:59.094Z,17.50
2019-05-12T16:58:33.132Z,17.50
2019-05-12T17:00:56.411Z,17.30
2019-05-12T17:03:24.196Z,17.20
2019-05-12T17:05:55.629Z,17.20
2019-05-12T17:08:23.896Z,16.80
2019-05-12T17:11:02.348Z,16.70
2019-05-12T17:13:20.620Z,16.80
2019-05-12T17:15:48.974Z,16.40
2019-05-12T17:18:17.908Z,16.60
2019-05-12T17:20:47.133Z,16.80
2019-05-12T17:23:15.336Z,16.90
2019-05-12T17:25:43.127Z,16.80
2019-05-12T17:28:13.108Z,16.50
2019-05-12T17:30:40.434Z,16.70
2019-05-12T17:33:15.812Z,16.90
2019-05-12T17:35:37.727Z,17.00
2019-05-12T17:38:05.512Z,17.00
2019-05-12T17:40:33.900Z,16.80
2019-05-12T17:43:09.143Z,16.80
2019-05-12T17:45:31.363Z,16.70
2019-05-12T17:48:02.663Z,16.40
2019-05-12T17:50:28.988Z,15.50
2019-05-12T17:53:00.243Z,15.70
2019-05-12T17:55:27.439Z,16.00
2019-05-12T17:57:56.319Z,16.30
2019-05-12T18:00:25.383Z,16.40
2019-05-12T18:02:54.851Z,16.20
2019-05-12T18:05:23.842Z,15.90
2019-05-12T18:07:53.240Z,15.50
2019-05-12T18:10:21.257Z,15.40
2019-05-12T18:12:49.043Z,15.00
2019-05-12T18:15:16.991Z,14.80
2019-05-12T18:17:49.664Z,14.50
2019-05-12T18:20:14.817Z,14.20
2019-05-12T18:22:44.921Z,14.60
2019-05-12T18:25:14.349Z,14.80
2019-05-12T18:27:48.107Z,14.80
2019-05-12T18:30:12.300Z,14.60
2019-05-12T18:32:41.236Z,14.40
2019-05-12T18:35:09.108Z,14.30
2019-05-12T18:37:36.884Z,14.20
2019-05-12T18:40:05.468Z,14.10
2019-05-12T18:42:33.712Z,14.20
2019-05-12T18:45:11.640Z,14.10
2019-05-12T18:47:32.148Z,14.00
2019-05-12T18:50:01.072Z,14.00
2019-05-12T18:52:29.445Z,13.80
2019-05-12T18:54:58.372Z,13.70
2019-05-12T18:57:26.264Z,13.50
2019-05-12T19:00:01.212Z,13.40
2019-05-12T19:02:28.175Z,13.30
2019-05-12T19:04:53.901Z,13.40
2019-05-12T19:07:35.908Z,13.30
2019-05-12T19:09:51.316Z,13.20
2019-05-12T19:12:21.581Z,13.10
2019-05-12T19:14:51.899Z,13.10
2019-05-12T19:17:18.789Z,12.90
2019-05-12T19:19:52.130Z,12.80
2019-05-12T19:22:16.080Z,12.80
2019-05-12T19:24:44.474Z,12.70
2019-05-12T19:27:18.990Z,12.60
2019-05-12T19:29:48.755Z,12.60
2019-05-12T19:32:11.371Z,12.50
2019-05-12T19:34:39.444Z,12.50
2019-05-12T19:37:07.308Z,12.50
2019-05-12T19:39:35.182Z,12.50
2019-05-12T19:42:03.772Z,12.40
2019-05-12T19:44:31.723Z,12.30
2019-05-12T19:46:59.492Z,12.30
2019-05-12T19:49:28.411Z,12.30
2019-05-12T19:51:56.792Z,12.30
2019-05-12T19:54:29.657Z,12.10
2019-05-12T19:56:54.395Z,12.10
2019-05-12T19:59:23.630Z,12.00
2019-05-12T20:01:53.582Z,11.90
2019-05-12T20:04:30.929Z,11.90
2019-05-12T20:06:50.675Z,11.90
2019-05-12T20:09:18.463Z,11.90
2019-05-12T20:11:46.251Z,11.70
2019-05-12T20:14:16.646Z,11.60
2019-05-12T20:16:43.988Z,11.60
2019-05-12T20:19:13.578Z,11.60
2019-05-12T20:21:43.824Z,11.60
2019-05-12T20:24:11.077Z,11.40
2019-05-12T20:26:40.215Z,11.30
2019-05-12T20:29:08.090Z,11.30
2019-05-12T20:31:43.475Z,11.30
2019-05-12T20:34:10.710Z,11.20
2019-05-12T20:36:35.220Z,11.20
2019-05-12T20:39:10.115Z,11.20
2019-05-12T20:41:35.062Z,11.20
2019-05-12T20:44:02.855Z,11.10
2019-05-12T20:46:30.628Z,10.90
2019-05-12T20:49:01.120Z,10.90
2019-05-12T20:51:27.916Z,10.90
2019-05-12T20:53:55.704Z,10.90
2019-05-12T20:56:24.980Z,10.90
2019-05-12T20:58:53.064Z,10.90
2019-05-12T21:01:28.332Z,10.90
2019-05-12T21:03:50.980Z,10.90
2019-05-12T21:06:18.924Z,10.80
2019-05-12T21:08:53.876Z,10.70
2019-05-12T21:11:16.480Z,10.70
2019-05-12T21:13:44.353Z,10.70
2019-05-12T21:16:17.495Z,10.70
2019-05-12T21:18:47.895Z,10.60
2019-05-12T21:21:11.552Z,10.60
2019-05-12T21:23:39.411Z,10.60
2019-05-12T21:26:07.191Z,10.60
2019-05-12T21:28:37.250Z,10.50
2019-05-12T21:31:05.029Z,10.40
2019-05-12T21:33:39.894Z,10.30
2019-05-12T21:36:03.692Z,10.30
2019-05-12T21:38:33.971Z,10.30
2019-05-12T21:41:02.060Z,10.10
2019-05-12T21:43:30.996Z,10.10
2019-05-12T21:46:01.086Z,10.00
2019-05-12T21:48:29.311Z,10.00
2019-05-12T21:50:57.287Z,10.00
2019-05-12T21:53:25.069Z,9.90
2019-05-12T21:55:57.631Z,9.80
2019-05-12T21:58:22.352Z,9.80
2019-05-12T22:00:59.611Z,9.80
2019-05-12T22:03:24.135Z,9.80
2019-05-12T22:05:55.205Z,9.70
2019-05-12T22:08:25.099Z,9.70
2019-05-12T22:10:53.979Z,9.70
2019-05-12T22:13:21.275Z,9.60
2019-05-12T22:15:51.397Z,9.60
2019-05-12T22:18:18.734Z,9.60
2019-05-12T22:20:46.700Z,9.50
2019-05-12T22:23:16.164Z,9.50
2019-05-12T22:25:49.287Z,9.40
2019-05-12T22:28:13.654Z,9.30
2019-05-12T22:30:43.604Z,9.30
2019-05-12T22:33:13.230Z,9.30
2019-05-12T22:35:40.599Z,9.30
2019-05-12T22:38:15.173Z,9.30
2019-05-12T22:40:37.866Z,9.20
2019-05-12T22:43:07.139Z,9.20
2019-05-12T22:45:43.873Z,9.10
2019-05-12T22:48:04.761Z,9.10
2019-05-12T22:50:34.882Z,9.00
2019-05-12T22:53:04.431Z,9.00
2019-05-12T22:55:33.202Z,9.00
2019-05-12T22:58:01.524Z,9.00
2019-05-12T23:00:29.461Z,9.00
2019-05-12T23:03:00.530Z,9.00
2019-05-12T23:05:26.728Z,8.90
2019-05-12T23:07:54.587Z,8.90
2019-05-12T23:10:22.493Z,8.90
2019-05-12T23:12:55.570Z,8.90
2019-05-12T23:15:19.832Z,8.90
2019-05-12T23:17:49.335Z,8.80
2019-05-12T23:20:18.016Z,8.80
2019-05-12T23:22:45.815Z,8.80
2019-05-12T23:25:19.938Z,8.70
2019-05-12T23:27:44.183Z,8.70
2019-05-12T23:30:13.406Z,8.60
2019-05-12T23:32:45.290Z,8.70
2019-05-12T23:35:11.593Z,8.70
2019-05-12T23:37:40.330Z,8.70
2019-05-12T23:40:11.607Z,8.60
2019-05-12T23:42:38.059Z,8.60
2019-05-12T23:45:06.045Z,8.50
2019-05-12T23:47:34.292Z,8.50
2019-05-12T23:50:04.035Z,8.40
2019-05-12T23:52:31.975Z,8.40
2019-05-12T23:54:59.751Z,8.30
2019-05-12T23:57:27.528Z,8.30
2019-05-12T23:59:55.389Z,8.30
